createdAt,value
2018-05-21T00:01:53.463Z,15.33
2018-05-21T00:04:21.002Z,15.33
2018-05-21T00:06:48.515Z,15.31
2018-05-21T00:09:16.139Z,15.28
2018-05-21T00:11:44.555Z,15.26
2018-05-21T00:14:14.999Z,15.24
2018-05-21T00:16:45.192Z,15.19
2018-05-21T00:19:14.205Z,15.16
2018-05-21T00:21:41.779Z,15.10
2018-05-21T00:24:09.320Z,15.07
2018-05-21T00:26:36.867Z,15.06
2018-05-21T00:29:05.702Z,15.04
2018-05-21T00:31:36.550Z,14.99
2018-05-21T00:34:04.687Z,14.97
2018-05-21T00:36:33.159Z,14.94
2018-05-21T00:39:00.699Z,14.92
2018-05-21T00:41:28.223Z,14.89
2018-05-21T00:43:55.734Z,14.86
2018-05-21T00:46:24.641Z,14.84
2018-05-21T00:48:53.139Z,14.83
2018-05-21T00:51:24.457Z,14.80
2018-05-21T00:53:54.640Z,14.78
2018-05-21T00:56:23.363Z,14.73
2018-05-21T00:58:50.871Z,14.71
2018-05-21T01:01:18.392Z,14.69
2018-05-21T01:03:45.951Z,14.67
2018-05-21T01:06:14.474Z,14.62
2018-05-21T01:08:42.263Z,14.56
2018-05-21T01:11:12.315Z,14.53
2018-05-21T01:13:39.833Z,14.49
2018-05-21T01:16:07.355Z,14.46
2018-05-21T01:18:34.896Z,14.45
2018-05-21T01:21:02.459Z,14.43
2018-05-21T01:23:30.855Z,14.41
2018-05-21T01:25:58.707Z,14.40
2018-05-21T01:28:26.533Z,14.36
2018-05-21T01:30:54.328Z,14.33
2018-05-21T01:33:21.889Z,14.29
2018-05-21T01:35:49.423Z,14.25
2018-05-21T01:38:17.100Z,14.24
2018-05-21T01:40:44.804Z,14.23
2018-05-21T01:43:12.644Z,14.20
2018-05-21T01:45:40.600Z,14.19
2018-05-21T01:48:09.183Z,14.19
2018-05-21T01:50:36.715Z,14.16
2018-05-21T01:53:04.265Z,14.13
2018-05-21T01:55:31.793Z,14.10
2018-05-21T01:57:59.467Z,14.08
2018-05-21T02:00:28.415Z,14.05
2018-05-21T02:02:56.653Z,14.04
2018-05-21T02:05:24.528Z,14.02
2018-05-21T02:07:52.075Z,14.01
2018-05-21T02:10:19.606Z,13.96
2018-05-21T02:12:47.235Z,13.94
2018-05-21T02:15:14.904Z,13.87
2018-05-21T02:17:42.626Z,13.80
2018-05-21T02:20:10.654Z,13.78
2018-05-21T02:22:39.049Z,13.76
2018-05-21T02:25:06.683Z,13.75
2018-05-21T02:27:34.195Z,13.73
2018-05-21T02:30:01.742Z,13.69
2018-05-21T02:32:29.459Z,13.67
2018-05-21T02:34:57.363Z,13.64
2018-05-21T02:37:25.973Z,13.62
2018-05-21T02:39:53.713Z,13.58
2018-05-21T02:42:21.328Z,13.53
2018-05-21T02:44:48.857Z,13.49
2018-05-21T02:47:16.435Z,13.43
2018-05-21T02:49:44.095Z,13.41
2018-05-21T02:52:12.667Z,13.40
2018-05-21T02:54:40.525Z,13.41
2018-05-21T02:57:09.229Z,13.39
2018-05-21T02:59:36.804Z,13.39
2018-05-21T03:02:04.359Z,13.38
2018-05-21T03:04:31.935Z,13.35
2018-05-21T03:06:59.623Z,13.34
2018-05-21T03:09:29.534Z,13.31
2018-05-21T03:11:58.406Z,13.31
2018-05-21T03:14:26.100Z,13.28
2018-05-21T03:16:53.792Z,13.25
2018-05-21T03:19:21.348Z,13.23
2018-05-21T03:21:48.898Z,13.21
2018-05-21T03:24:16.465Z,13.19
2018-05-21T03:26:46.377Z,13.18
2018-05-21T03:29:14.074Z,13.15
2018-05-21T03:31:44.788Z,13.14
2018-05-21T03:34:12.859Z,13.13
2018-05-21T03:36:40.371Z,13.13
2018-05-21T03:39:07.915Z,13.13
2018-05-21T03:41:35.727Z,13.12
2018-05-21T03:44:03.452Z,13.10
2018-05-21T03:46:31.618Z,13.09
2018-05-21T03:51:30.872Z,13.04
2018-05-21T03:53:58.491Z,13.03
2018-05-21T03:56:26.010Z,13.00
2018-05-21T03:59:05.358Z,12.97
2018-05-21T04:01:46.493Z,12.94
2018-05-21T04:04:16.781Z,12.91
2018-05-21T04:06:44.651Z,12.88
2018-05-21T04:09:12.178Z,12.84
2018-05-21T04:11:39.783Z,12.82
2018-05-21T04:14:07.402Z,12.81
2018-05-21T04:16:35.059Z,12.79
2018-05-21T04:19:02.855Z,12.78
2018-05-21T04:21:30.620Z,12.79
2018-05-21T04:23:59.206Z,12.78
2018-05-21T04:26:26.839Z,12.77
2018-05-21T04:28:54.387Z,12.77
2018-05-21T04:31:21.881Z,12.77
2018-05-21T04:33:49.418Z,12.78
2018-05-21T04:36:17.713Z,12.78
2018-05-21T04:38:46.198Z,12.77
2018-05-21T04:41:15.000Z,12.77
2018-05-21T04:43:42.711Z,12.76
2018-05-21T04:46:10.366Z,12.76
2018-05-21T04:48:37.901Z,12.76
2018-05-21T04:51:05.507Z,12.77
2018-05-21T04:53:34.025Z,12.80
2018-05-21T04:56:02.192Z,12.81
2018-05-21T04:58:30.692Z,12.83
2018-05-21T05:01:01.399Z,12.85
2018-05-21T05:03:28.975Z,12.86
2018-05-21T05:05:56.495Z,12.87
2018-05-21T05:08:24.259Z,12.89
2018-05-21T05:10:54.213Z,12.90
2018-05-21T05:13:26.547Z,12.92
2018-05-21T05:15:54.180Z,12.95
2018-05-21T05:18:22.410Z,12.99
2018-05-21T05:20:49.981Z,13.02
2018-05-21T05:23:18.560Z,13.02
2018-05-21T05:25:46.120Z,13.04
2018-05-21T05:28:20.878Z,13.07
2018-05-21T05:30:50.020Z,13.11
2018-05-21T05:33:18.645Z,13.15
2018-05-21T05:35:50.205Z,13.18
2018-05-21T05:38:17.741Z,13.22
2018-05-21T05:40:45.285Z,13.28
2018-05-21T05:43:12.792Z,13.31
2018-05-21T05:45:40.459Z,13.35
2018-05-21T05:48:08.753Z,13.38
2018-05-21T05:50:37.722Z,13.41
2018-05-21T05:53:06.441Z,13.46
2018-05-21T05:55:33.975Z,13.51
2018-05-21T05:58:01.551Z,13.54
2018-05-21T06:00:29.155Z,13.59
2018-05-21T06:02:56.943Z,13.66
2018-05-21T06:08:29.040Z,13.79
2018-05-21T06:11:01.592Z,13.82
2018-05-21T06:13:29.239Z,13.84
2018-05-21T06:15:56.771Z,13.88
2018-05-21T06:18:24.339Z,13.95
2018-05-21T06:23:54.868Z,14.07
2018-05-21T06:26:27.713Z,14.11
2018-05-21T06:28:57.639Z,14.17
2018-05-21T06:31:25.243Z,14.23
2018-05-21T06:33:52.802Z,14.27
2018-05-21T06:36:20.326Z,14.33
2018-05-21T06:38:50.402Z,14.38
2018-05-21T06:41:18.574Z,14.44
2018-05-21T06:43:48.613Z,14.48
2018-05-21T06:46:16.630Z,14.55
2018-05-21T06:48:44.138Z,14.61
2018-05-21T06:51:11.642Z,14.65
2018-05-21T06:53:39.142Z,14.71
2018-05-21T06:56:09.392Z,14.77
2018-05-21T06:58:38.309Z,14.81
2018-05-21T07:01:06.868Z,14.86
2018-05-21T07:03:40.930Z,14.93
2018-05-21T07:06:08.462Z,14.98
2018-05-21T07:08:35.942Z,15.00
2018-05-21T07:11:03.493Z,15.05
2018-05-21T07:16:30.676Z,15.16
2018-05-21T07:19:02.872Z,15.23
2018-05-21T07:21:31.595Z,15.28
2018-05-21T07:23:59.115Z,15.33
2018-05-21T07:26:26.649Z,15.40
2018-05-21T07:28:54.292Z,15.46
2018-05-21T07:31:22.400Z,15.53
2018-05-21T07:33:50.043Z,15.59
2018-05-21T07:36:18.146Z,15.66
2018-05-21T07:38:45.717Z,15.71
2018-05-21T07:41:13.176Z,15.77
2018-05-21T07:43:40.690Z,15.84
2018-05-21T07:46:08.383Z,15.91
2018-05-21T07:51:35.624Z,16.03
2018-05-21T07:54:03.316Z,16.12
2018-05-21T07:56:30.919Z,16.19
2018-05-21T07:58:58.511Z,16.27
2018-05-21T08:01:26.042Z,16.34
2018-05-21T08:03:53.731Z,16.42
2018-05-21T08:06:22.056Z,16.50
2018-05-21T08:08:50.607Z,16.59
2018-05-21T08:11:26.121Z,16.68
2018-05-21T08:13:53.667Z,16.77
2018-05-21T08:16:21.193Z,16.86
2018-05-21T08:18:48.747Z,16.92
2018-05-21T08:21:16.328Z,16.99
2018-05-21T08:27:16.851Z,17.12
2018-05-21T08:29:44.657Z,17.15
2018-05-21T08:32:12.231Z,17.17
2018-05-21T08:34:39.793Z,17.17
2018-05-21T08:37:07.271Z,17.18
2018-05-21T08:39:42.083Z,17.20
2018-05-21T08:42:10.697Z,17.25
2018-05-21T08:44:38.361Z,17.28
2018-05-21T08:47:06.667Z,17.34
2018-05-21T08:49:34.146Z,17.40
2018-05-21T08:54:55.512Z,17.49
2018-05-21T08:57:23.149Z,17.53
2018-05-21T08:59:50.765Z,17.58
2018-05-21T09:02:18.446Z,17.59
2018-05-21T09:04:46.121Z,17.61
2018-05-21T09:07:13.628Z,17.64
2018-05-21T09:09:41.178Z,17.68
2018-05-21T09:12:08.731Z,17.72
2018-05-21T09:14:36.371Z,17.71
2018-05-21T09:17:07.160Z,17.74
2018-05-21T09:19:34.766Z,17.80
2018-05-21T09:22:02.399Z,17.86
2018-05-21T09:24:29.911Z,17.92
2018-05-21T09:26:57.471Z,17.99
2018-05-21T09:29:25.072Z,18.06
2018-05-21T09:31:57.232Z,18.09
2018-05-21T09:37:36.748Z,18.17
2018-05-21T09:40:04.283Z,18.20
2018-05-21T09:42:31.787Z,18.23
2018-05-21T09:44:59.331Z,18.25
2018-05-21T09:47:26.898Z,18.27
2018-05-21T09:49:54.559Z,18.27
2018-05-21T09:52:24.545Z,18.28
2018-05-21T09:54:52.964Z,18.29
2018-05-21T09:57:20.748Z,18.31
2018-05-21T09:59:48.291Z,18.33
2018-05-21T10:02:15.812Z,18.36
2018-05-21T10:04:43.363Z,18.41
2018-05-21T10:07:12.831Z,18.42
2018-05-21T10:09:40.669Z,18.47
2018-05-21T10:12:08.824Z,18.52
2018-05-21T10:14:36.531Z,18.60
2018-05-21T10:19:35.881Z,18.76
2018-05-21T10:22:03.411Z,18.85
2018-05-21T10:24:30.961Z,18.97
2018-05-21T10:26:58.595Z,19.11
2018-05-21T10:29:26.231Z,19.23
2018-05-21T10:31:59.490Z,19.32
2018-05-21T10:34:27.170Z,19.43
2018-05-21T10:36:54.860Z,19.52
2018-05-21T10:39:22.441Z,19.59
2018-05-21T10:41:49.963Z,19.66
2018-05-21T10:44:17.516Z,19.74
2018-05-21T10:46:45.071Z,19.80
2018-05-21T10:49:13.907Z,19.83
2018-05-21T10:51:42.104Z,19.89
2018-05-21T10:54:10.770Z,19.95
2018-05-21T10:56:38.468Z,20.07
2018-05-21T10:59:05.997Z,20.23
2018-05-21T11:01:33.566Z,20.46
2018-05-21T11:04:01.431Z,20.69
2018-05-21T11:06:29.038Z,20.88
2018-05-21T11:08:57.621Z,21.05
2018-05-21T11:11:27.311Z,21.18
2018-05-21T11:13:57.728Z,21.29
2018-05-21T11:16:25.255Z,21.42
2018-05-21T11:18:52.768Z,21.52
2018-05-21T11:21:20.314Z,21.54
2018-05-21T11:23:48.155Z,21.52
2018-05-21T11:26:19.917Z,21.57
2018-05-21T11:28:49.440Z,21.63
2018-05-21T11:34:01.503Z,21.82
2018-05-21T11:36:29.137Z,21.99
2018-05-21T11:38:56.715Z,22.11
2018-05-21T11:41:24.251Z,22.18
2018-05-21T11:43:51.842Z,22.27
2018-05-21T11:46:20.186Z,22.43
2018-05-21T11:48:49.531Z,22.60
2018-05-21T11:51:18.079Z,22.79
2018-05-21T11:53:46.695Z,22.96
2018-05-21T11:56:14.307Z,23.08
2018-05-21T11:58:41.839Z,23.26
2018-05-21T12:01:09.486Z,23.40
2018-05-21T12:03:38.104Z,23.48
2018-05-21T12:14:43.342Z,23.99
2018-05-21T12:17:10.921Z,24.19
2018-05-21T12:19:38.462Z,24.36
2018-05-21T12:33:36.696Z,24.62
2018-05-21T12:36:04.253Z,24.69
2018-05-21T12:38:31.902Z,24.79
2018-05-21T12:50:26.454Z,25.33
2018-05-21T12:52:57.131Z,25.39
2018-05-21T12:55:24.698Z,25.49
2018-05-21T12:57:52.508Z,25.61
2018-05-21T13:05:17.895Z,25.94
2018-05-21T13:10:18.203Z,26.00
2018-05-21T13:12:45.779Z,25.96
2018-05-21T13:15:14.193Z,25.99
2018-05-21T13:17:42.839Z,26.07
2018-05-21T13:20:33.573Z,26.21
2018-05-21T13:23:06.593Z,26.31
2018-05-21T13:25:34.478Z,26.44
2018-05-21T13:28:02.066Z,26.53
2018-05-21T13:30:29.608Z,26.60
2018-05-21T13:32:57.122Z,26.63
2018-05-21T13:35:25.707Z,26.62
2018-05-21T13:37:58.311Z,26.63
2018-05-21T13:40:41.579Z,26.68
2018-05-21T13:43:14.183Z,26.78
2018-05-21T13:45:42.544Z,26.79
2018-05-21T13:48:12.383Z,26.83
2018-05-21T13:50:39.947Z,26.83
2018-05-21T13:53:13.883Z,26.80
2018-05-21T13:55:42.331Z,26.76
2018-05-21T13:58:12.793Z,26.65
2018-05-21T14:00:44.694Z,26.55
2018-05-21T14:03:12.300Z,26.48
2018-05-21T14:05:39.874Z,26.44
2018-05-21T14:08:07.415Z,26.45
2018-05-21T14:10:35.093Z,26.43
2018-05-21T14:13:05.072Z,26.41
2018-05-21T14:15:34.518Z,26.44
2018-05-21T14:18:03.020Z,26.51
2018-05-21T14:20:31.674Z,26.55
2018-05-21T14:22:59.186Z,26.51
2018-05-21T14:25:26.806Z,26.54
2018-05-21T14:27:54.591Z,26.60
2018-05-21T14:30:22.295Z,26.62
2018-05-21T14:32:50.312Z,26.65
2018-05-21T14:35:18.659Z,26.56
2018-05-21T14:37:46.195Z,26.58
2018-05-21T14:40:13.747Z,26.49
2018-05-21T14:42:41.294Z,26.42
2018-05-21T14:45:10.381Z,26.26
2018-05-21T14:47:37.975Z,26.13
2018-05-21T14:50:06.772Z,26.00
2018-05-21T14:52:36.889Z,25.85
2018-05-21T14:55:04.419Z,25.77
2018-05-21T14:57:31.991Z,25.77
2018-05-21T14:59:59.635Z,25.74
2018-05-21T15:02:27.260Z,25.65
2018-05-21T15:08:38.387Z,26.02
2018-05-21T15:11:07.461Z,26.15
2018-05-21T15:13:35.708Z,26.10
2018-05-21T15:16:03.255Z,26.10
2018-05-21T15:18:30.819Z,26.06
2018-05-21T15:21:16.812Z,25.82
2018-05-21T15:23:46.996Z,25.79
2018-05-21T15:26:14.809Z,25.94
2018-05-21T15:28:42.384Z,26.09
2018-05-21T15:31:10.071Z,26.19
2018-05-21T15:33:37.618Z,26.29
2018-05-21T15:36:05.162Z,26.37
2018-05-21T15:44:07.151Z,26.53
2018-05-21T15:46:34.774Z,26.56
2018-05-21T15:49:02.302Z,26.61
2018-05-21T15:51:29.831Z,26.58
2018-05-21T15:53:57.456Z,26.57
2018-05-21T15:56:29.753Z,26.54
2018-05-21T15:58:59.195Z,26.52
2018-05-21T16:01:33.107Z,26.43
2018-05-21T16:04:01.773Z,26.51
2018-05-21T16:06:29.319Z,26.52
2018-05-21T16:08:56.876Z,26.45
2018-05-21T16:11:24.591Z,26.38
2018-05-21T16:13:55.980Z,26.26
2018-05-21T16:16:23.951Z,26.30
2018-05-21T16:18:51.531Z,26.29
2018-05-21T16:21:19.207Z,26.27
2018-05-21T16:23:47.803Z,26.25
2018-05-21T16:26:15.299Z,26.24
2018-05-21T16:28:42.971Z,26.31
2018-05-21T16:31:17.022Z,26.46
2018-05-21T16:33:50.175Z,26.52
2018-05-21T16:36:18.712Z,26.59
2018-05-21T16:41:25.833Z,26.41
2018-05-21T16:43:53.359Z,26.32
2018-05-21T16:46:20.887Z,26.43
2018-05-21T16:48:49.424Z,26.62
2018-05-21T16:51:17.969Z,26.79
2018-05-21T16:53:52.925Z,26.90
2018-05-21T16:56:21.508Z,26.94
2018-05-21T16:58:49.079Z,26.87
2018-05-21T17:01:16.620Z,26.80
2018-05-21T17:03:45.076Z,26.85
2018-05-21T17:06:12.716Z,27.03
2018-05-21T17:08:41.275Z,27.26
2018-05-21T17:11:10.731Z,27.43
2018-05-21T17:13:38.403Z,27.66
2018-05-21T17:16:06.821Z,27.86
2018-05-21T17:18:34.344Z,27.96
2018-05-21T17:21:02.110Z,28.01
2018-05-21T17:23:29.495Z,28.00
2018-05-21T17:26:01.074Z,27.96
2018-05-21T17:28:30.824Z,27.99
2018-05-21T17:30:58.547Z,28.05
2018-05-21T17:33:29.038Z,28.07
2018-05-21T17:35:56.595Z,28.07
2018-05-21T17:38:24.139Z,28.02
2018-05-21T17:40:51.654Z,27.97
2018-05-21T17:43:19.245Z,27.93
2018-05-21T17:46:06.065Z,27.98
2018-05-21T17:51:38.615Z,27.95
2018-05-21T17:54:06.536Z,27.88
2018-05-21T17:56:34.094Z,27.85
2018-05-21T17:59:01.640Z,27.84
2018-05-21T18:01:29.163Z,27.78
2018-05-21T18:03:57.887Z,27.68
2018-05-21T18:06:27.546Z,27.66
2018-05-21T18:08:55.160Z,27.62
2018-05-21T18:11:31.199Z,27.57
2018-05-21T18:13:58.740Z,27.56
2018-05-21T18:16:26.301Z,27.47
2018-05-21T18:18:53.836Z,27.35
2018-05-21T18:21:21.399Z,27.24
2018-05-21T18:23:49.135Z,27.16
2018-05-21T18:26:27.654Z,27.02
2018-05-21T18:28:55.305Z,26.87
2018-05-21T18:31:41.862Z,26.80
2018-05-21T18:34:09.340Z,26.68
2018-05-21T18:36:36.879Z,26.60
2018-05-21T18:39:04.527Z,26.56
2018-05-21T18:41:33.395Z,26.51
2018-05-21T18:44:05.828Z,26.44
2018-05-21T18:46:34.337Z,26.34
2018-05-21T18:49:02.872Z,26.31
2018-05-21T18:51:30.391Z,26.21
2018-05-21T18:53:57.908Z,25.99
2018-05-21T18:56:25.455Z,25.68
2018-05-21T18:58:53.067Z,25.37
2018-05-21T19:01:27.260Z,25.08
2018-05-21T19:04:01.457Z,24.73
2018-05-21T19:06:29.975Z,24.36
2018-05-21T19:11:55.939Z,23.75
2018-05-21T19:14:23.431Z,23.47
2018-05-21T19:16:50.918Z,23.19
2018-05-21T19:19:37.118Z,22.93
2018-05-21T20:04:36.158Z,20.04
2018-05-21T20:07:03.654Z,19.90
2018-05-21T20:09:31.271Z,19.74
2018-05-21T20:11:58.935Z,19.63
2018-05-21T20:14:26.712Z,19.54
2018-05-21T20:16:54.324Z,19.46
2018-05-21T20:19:22.076Z,19.27
2018-05-21T20:21:49.599Z,19.16
2018-05-21T20:24:17.072Z,19.07
2018-05-21T20:26:44.607Z,18.98
2018-05-21T20:29:12.172Z,18.90
2018-05-21T20:31:43.033Z,18.85
2018-05-21T20:34:12.339Z,18.81
2018-05-21T20:36:45.679Z,18.80
2018-05-21T20:39:13.241Z,18.72
2018-05-21T20:41:40.795Z,18.63
2018-05-21T20:44:08.355Z,18.54
2018-05-21T20:46:35.902Z,18.45
2018-05-21T20:49:03.878Z,18.42
2018-05-21T20:51:31.566Z,18.40
2018-05-21T20:53:59.401Z,18.42
2018-05-21T20:56:29.986Z,18.40
2018-05-21T20:58:57.539Z,18.35
2018-05-21T21:01:25.083Z,18.25
2018-05-21T21:03:52.660Z,18.20
2018-05-21T21:06:22.563Z,18.17
2018-05-21T21:08:50.829Z,18.15
2018-05-21T21:11:22.322Z,18.15
2018-05-21T21:13:50.969Z,18.13
2018-05-21T21:16:18.567Z,18.11
2018-05-21T21:18:46.108Z,18.12
2018-05-21T21:21:13.639Z,18.10
2018-05-21T21:23:41.387Z,18.05
2018-05-21T21:26:11.141Z,18.03
2018-05-21T21:28:39.044Z,18.03
2018-05-21T21:31:06.727Z,18.01
2018-05-21T21:33:34.460Z,17.94
2018-05-21T21:36:01.988Z,17.88
2018-05-21T21:38:29.522Z,17.88
2018-05-21T21:40:57.161Z,17.85
2018-05-21T21:43:29.216Z,17.84
2018-05-21T21:45:57.991Z,17.80
2018-05-21T21:48:25.790Z,17.76
2018-05-21T21:50:54.129Z,17.73
2018-05-21T21:53:22.329Z,17.72
2018-05-21T21:55:49.759Z,17.70
2018-05-21T21:58:17.256Z,17.69
2018-05-21T22:00:45.967Z,17.65
2018-05-21T22:03:13.870Z,17.58
2018-05-21T22:05:42.242Z,17.56
2018-05-21T22:08:17.837Z,17.53
2018-05-21T22:10:45.359Z,17.49
2018-05-21T22:13:12.908Z,17.48
2018-05-21T22:15:40.439Z,17.46
2018-05-21T22:18:09.822Z,17.41
2018-05-21T22:28:23.969Z,17.34
2018-05-21T22:30:51.496Z,17.37
2018-05-21T22:33:19.075Z,17.40
2018-05-21T22:46:04.085Z,17.55
2018-05-21T22:48:31.580Z,17.59
2018-05-21T22:50:59.194Z,17.60
2018-05-21T23:03:48.967Z,17.59
2018-05-21T23:06:16.544Z,17.58
2018-05-21T23:08:44.140Z,17.58
2018-05-21T23:13:47.310Z,17.57
2018-05-21T23:18:47.522Z,17.56
2018-05-21T23:21:15.083Z,17.55
2018-05-21T23:23:42.598Z,17.52
2018-05-21T23:26:10.119Z,17.51
2018-05-21T23:28:37.714Z,17.51
2018-05-21T23:31:05.417Z,17.50
2018-05-21T23:33:33.111Z,17.46
2018-05-21T23:36:03.470Z,17.40
2018-05-21T23:38:31.091Z,17.40
2018-05-21T23:40:58.634Z,17.41
2018-05-21T23:43:26.166Z,17.38
2018-05-21T23:48:43.402Z,17.32
2018-05-21T23:51:11.024Z,17.28
2018-05-21T23:53:38.663Z,17.24
2018-05-21T23:56:06.226Z,17.22
2018-05-21T23:58:33.759Z,17.19
